Time;durP1;ratioP1;P1;durP2;ratioP2;P2;SDS_P1;SDS_P2;PMS_P1;PMS_P2;Temp;Humidity;BMP_temperature;BMP_pressure;BME280_temperature;BME280_humidity;BME280_pressure;Samples;Min_cycle;Max_cycle;Signal;HPM_P1;HPM_P2
2022/07/19 00:01:50;;;;;;;17.15;8.23;;;;;;;;;;4986357;28;96536;-73
2022/07/19 00:04:17;;;;;;;16.23;8.35;;;;;;;;;;4988014;28;96340;-73
2022/07/19 00:06:43;;;;;;;11.32;8.32;;;;;;;;;;4983458;28;93266;-73
2022/07/19 00:09:11;;;;;;;13.55;8.20;;;;;;;;;;4989896;28;93301;-73
2022/07/19 00:11:37;;;;;;;14.15;8.98;;;;;;;;;;4987291;28;93028;-73
2022/07/19 00:14:04;;;;;;;14.13;8.48;;;;;;;;;;4987788;28;94016;-73
2022/07/19 00:16:30;;;;;;;20.45;8.25;;;;;;;;;;4988411;28;93364;-73
2022/07/19 00:18:57;;;;;;;16.55;8.65;;;;;;;;;;4985073;28;93395;-73
2022/07/19 00:21:23;;;;;;;21.52;8.35;;;;;;;;;;4985474;28;94184;-73
2022/07/19 00:23:50;;;;;;;20.38;8.73;;;;;;;;;;4988515;28;93575;-72
2022/07/19 00:26:16;;;;;;;15.00;8.80;;;;;;;;;;4986601;28;95614;-72
2022/07/19 00:28:42;;;;;;;13.35;8.35;;;;;;;;;;4986574;28;92613;-73
2022/07/19 00:31:09;;;;;;;18.63;8.95;;;;;;;;;;4987771;28;93058;-73
2022/07/19 00:33:35;;;;;;;13.50;8.25;;;;;;;;;;4985105;28;95748;-72
2022/07/19 00:36:02;;;;;;;12.07;8.10;;;;;;;;;;4985009;28;93947;-73
2022/07/19 00:38:28;;;;;;;11.20;9.00;;;;;;;;;;4982822;28;94015;-72
2022/07/19 00:40:54;;;;;;;18.70;8.60;;;;;;;;;;4987368;28;94184;-73
2022/07/19 00:43:21;;;;;;;12.77;7.65;;;;;;;;;;4985412;28;92370;-72
2022/07/19 00:45:47;;;;;;;20.40;8.07;;;;;;;;;;4984372;28;93454;-73
2022/07/19 00:48:14;;;;;;;14.05;8.63;;;;;;;;;;4986979;28;94240;-73
2022/07/19 00:50:40;;;;;;;14.38;8.13;;;;;;;;;;4981314;28;96681;-73
2022/07/19 00:53:06;;;;;;;14.70;8.13;;;;;;;;;;4984496;28;93573;-73
2022/07/19 00:55:34;;;;;;;10.05;8.07;;;;;;;;;;4984063;28;93662;-73
2022/07/19 00:58:01;;;;;;;16.60;8.00;;;;;;;;;;4987854;28;93270;-73
2022/07/19 01:00:28;;;;;;;9.40;7.50;;;;;;;;;;4988077;28;93279;-73
2022/07/19 01:02:55;;;;;;;21.10;8.60;;;;;;;;;;4983777;28;92617;-73
2022/07/19 01:05:21;;;;;;;11.15;7.65;;;;;;;;;;4984802;28;93271;-73
2022/07/19 01:07:48;;;;;;;12.07;8.45;;;;;;;;;;4983789;28;93087;-73
2022/07/19 01:10:16;;;;;;;12.02;7.40;;;;;;;;;;4985493;28;94440;-72
2022/07/19 01:12:42;;;;;;;10.70;7.78;;;;;;;;;;4986544;28;93458;-72
2022/07/19 01:15:13;;;;;;;8.95;6.68;;;;;;;;;;4985378;28;95083;-73
2022/07/19 01:17:39;;;;;;;16.15;7.40;;;;;;;;;;4982125;28;95453;-73
2022/07/19 01:20:06;;;;;;;13.82;7.20;;;;;;;;;;4985911;28;94009;-73
2022/07/19 01:22:33;;;;;;;11.57;7.30;;;;;;;;;;4981714;28;92877;-73
2022/07/19 01:25:00;;;;;;;13.45;7.43;;;;;;;;;;4985301;28;93698;-72
2022/07/19 01:27:26;;;;;;;9.60;7.18;;;;;;;;;;4983082;28;94216;-72
2022/07/19 01:29:53;;;;;;;11.95;7.07;;;;;;;;;;4985296;27;93026;-72
2022/07/19 01:32:19;;;;;;;15.40;7.28;;;;;;;;;;4985107;28;93446;-72
2022/07/19 01:34:45;;;;;;;8.05;7.30;;;;;;;;;;4986481;28;92569;-72
2022/07/19 01:37:12;;;;;;;17.95;7.47;;;;;;;;;;4981753;28;93854;-72
2022/07/19 01:39:38;;;;;;;22.35;8.23;;;;;;;;;;4980417;28;96016;-72
2022/07/19 01:42:04;;;;;;;11.95;8.20;;;;;;;;;;4979440;28;93639;-73
2022/07/19 01:44:31;;;;;;;18.13;7.50;;;;;;;;;;4985824;28;94021;-73
2022/07/19 01:46:57;;;;;;;11.77;7.88;;;;;;;;;;4985903;28;93796;-73
2022/07/19 01:49:23;;;;;;;14.10;8.18;;;;;;;;;;4992146;28;92589;-73
2022/07/19 01:51:50;;;;;;;15.57;8.45;;;;;;;;;;4983362;28;94232;-73
2022/07/19 01:54:16;;;;;;;18.60;8.70;;;;;;;;;;4983291;28;94166;-73
2022/07/19 01:56:43;;;;;;;13.07;8.80;;;;;;;;;;4988964;28;92969;-73
2022/07/19 01:59:09;;;;;;;29.95;9.43;;;;;;;;;;4984367;28;94580;-73
2022/07/19 02:01:36;;;;;;;18.20;9.77;;;;;;;;;;4983213;28;93667;-73
2022/07/19 02:04:03;;;;;;;14.82;10.05;;;;;;;;;;4981098;28;95049;-72
2022/07/19 02:06:29;;;;;;;17.25;10.32;;;;;;;;;;4982547;28;94273;-73
2022/07/19 02:08:56;;;;;;;17.90;10.02;;;;;;;;;;4985292;28;94848;-72
2022/07/19 02:11:37;;;;;;;20.20;10.15;;;;;;;;;;4982247;28;94070;-73
2022/07/19 02:14:04;;;;;;;19.85;10.68;;;;;;;;;;4983702;28;93669;-72
2022/07/19 02:16:31;;;;;;;15.25;10.57;;;;;;;;;;4980075;28;94062;-73
2022/07/19 02:18:57;;;;;;;16.30;10.27;;;;;;;;;;4983146;28;93995;-73
2022/07/19 02:21:24;;;;;;;13.63;10.60;;;;;;;;;;4989254;28;92334;-72
2022/07/19 02:23:51;;;;;;;25.20;11.32;;;;;;;;;;4986062;28;93973;-73
2022/07/19 02:26:17;;;;;;;20.92;10.68;;;;;;;;;;4986166;28;93841;-73
2022/07/19 02:28:43;;;;;;;20.15;10.90;;;;;;;;;;4984348;28;95618;-74
2022/07/19 02:31:11;;;;;;;10.60;9.48;;;;;;;;;;4987767;28;95359;-73
2022/07/19 02:33:38;;;;;;;20.27;10.70;;;;;;;;;;4984899;28;94404;-74
2022/07/19 02:36:04;;;;;;;10.77;9.40;;;;;;;;;;4983720;28;94844;-74
2022/07/19 02:38:31;;;;;;;16.80;9.82;;;;;;;;;;4986434;28;94269;-73
2022/07/19 02:40:57;;;;;;;13.35;9.52;;;;;;;;;;4983638;28;94048;-73
2022/07/19 02:43:24;;;;;;;19.60;9.57;;;;;;;;;;4984467;28;93913;-74
2022/07/19 02:45:50;;;;;;;15.52;9.88;;;;;;;;;;4983277;28;93211;-73
2022/07/19 02:48:17;;;;;;;17.13;9.77;;;;;;;;;;4984864;28;94235;-73
2022/07/19 02:50:43;;;;;;;22.30;10.00;;;;;;;;;;4976556;28;94224;-73
2022/07/19 02:53:10;;;;;;;17.33;9.65;;;;;;;;;;4983258;27;96367;-74
2022/07/19 02:55:36;;;;;;;14.82;9.18;;;;;;;;;;4981898;28;95426;-73
2022/07/19 02:58:03;;;;;;;16.42;8.98;;;;;;;;;;4983389;28;93616;-73
2022/07/19 03:00:29;;;;;;;14.30;8.50;;;;;;;;;;4987885;28;92833;-75
2022/07/19 03:05:48;;;;;;;10.90;8.90;;;;;;;;;;4982581;28;94254;-73
2022/07/19 03:08:14;;;;;;;15.93;9.52;;;;;;;;;;4983913;28;93535;-74
2022/07/19 03:10:42;;;;;;;11.70;9.25;;;;;;;;;;4988717;28;93464;-74
2022/07/19 03:13:08;;;;;;;19.98;9.65;;;;;;;;;;4987142;27;94148;-73
2022/07/19 03:15:35;;;;;;;18.77;9.68;;;;;;;;;;4993675;28;93899;-74
2022/07/19 03:18:03;;;;;;;15.82;10.18;;;;;;;;;;4983055;28;95992;-73
2022/07/19 03:20:30;;;;;;;17.33;10.65;;;;;;;;;;4984421;28;94582;-74
2022/07/19 03:22:56;;;;;;;19.33;10.38;;;;;;;;;;4985150;28;94077;-74
2022/07/19 03:25:23;;;;;;;17.83;10.90;;;;;;;;;;4983474;28;93877;-74
2022/07/19 03:27:53;;;;;;;18.77;9.43;;;;;;;;;;4986167;28;94107;-74
2022/07/19 03:30:19;;;;;;;13.02;9.80;;;;;;;;;;4983102;28;93866;-74
2022/07/19 03:32:45;;;;;;;17.23;9.82;;;;;;;;;;4986458;28;93410;-73
2022/07/19 03:35:12;;;;;;;15.07;9.48;;;;;;;;;;4982461;28;92059;-74
2022/07/19 03:37:38;;;;;;;15.88;9.98;;;;;;;;;;4986607;28;94083;-73
2022/07/19 03:40:05;;;;;;;16.98;10.23;;;;;;;;;;4983595;28;93679;-73
2022/07/19 03:42:31;;;;;;;17.77;9.85;;;;;;;;;;4986271;28;95926;-73
2022/07/19 03:44:58;;;;;;;14.20;10.07;;;;;;;;;;4984995;28;94108;-74
2022/07/19 03:47:24;;;;;;;11.68;10.43;;;;;;;;;;4987701;27;93799;-74
2022/07/19 03:49:51;;;;;;;14.02;10.70;;;;;;;;;;4983673;28;94865;-74
2022/07/19 03:52:17;;;;;;;19.73;10.57;;;;;;;;;;4989184;28;93475;-73
2022/07/19 03:54:44;;;;;;;14.13;10.55;;;;;;;;;;4984497;28;93960;-73
2022/07/19 03:57:10;;;;;;;19.83;11.13;;;;;;;;;;4981563;28;93967;-73
2022/07/19 03:59:36;;;;;;;14.93;10.70;;;;;;;;;;4986675;28;92185;-74
2022/07/19 04:02:03;;;;;;;21.55;11.05;;;;;;;;;;4989810;28;94623;-73
2022/07/19 04:04:29;;;;;;;17.67;11.88;;;;;;;;;;4989851;28;94047;-73
2022/07/19 04:06:56;;;;;;;17.58;11.07;;;;;;;;;;4980420;28;96408;-74
2022/07/19 04:09:23;;;;;;;25.15;11.32;;;;;;;;;;4984572;28;95560;-73
2022/07/19 04:11:49;;;;;;;19.88;11.00;;;;;;;;;;4985674;28;94020;-73
2022/07/19 04:14:16;;;;;;;16.67;10.77;;;;;;;;;;4981008;28;94878;-73
2022/07/19 04:16:42;;;;;;;12.77;10.27;;;;;;;;;;4983079;28;93914;-73
2022/07/19 04:19:09;;;;;;;21.23;11.18;;;;;;;;;;4986237;28;93883;-73
2022/07/19 04:21:35;;;;;;;15.23;10.45;;;;;;;;;;4990993;28;93705;-73
2022/07/19 04:24:02;;;;;;;13.60;10.75;;;;;;;;;;4983507;28;93836;-73
2022/07/19 04:26:36;;;;;;;11.10;10.15;;;;;;;;;;4987335;28;92839;-73
2022/07/19 04:29:02;;;;;;;11.88;10.57;;;;;;;;;;4984777;28;94001;-74
2022/07/19 04:31:28;;;;;;;11.75;10.23;;;;;;;;;;4978685;28;96415;-74
2022/07/19 04:33:55;;;;;;;18.85;10.60;;;;;;;;;;4983371;28;93012;-74
2022/07/19 04:36:21;;;;;;;18.70;11.40;;;;;;;;;;4986067;28;93335;-73
2022/07/19 04:38:48;;;;;;;20.25;11.02;;;;;;;;;;4982710;28;93138;-73
2022/07/19 04:41:14;;;;;;;12.00;10.48;;;;;;;;;;4985952;28;93220;-73
2022/07/19 04:43:41;;;;;;;16.58;9.82;;;;;;;;;;4984505;28;93810;-73
2022/07/19 04:46:07;;;;;;;15.82;10.20;;;;;;;;;;4986933;28;92851;-73
2022/07/19 04:48:34;;;;;;;14.32;9.25;;;;;;;;;;4988072;28;92891;-73
2022/07/19 04:51:00;;;;;;;16.52;9.77;;;;;;;;;;4988572;28;92821;-73
2022/07/19 04:53:27;;;;;;;15.30;11.15;;;;;;;;;;4993239;28;93159;-73
2022/07/19 04:55:53;;;;;;;19.02;10.77;;;;;;;;;;4984641;28;95022;-73
2022/07/19 04:58:20;;;;;;;18.10;9.40;;;;;;;;;;4987595;28;92492;-76
2022/07/19 05:00:47;;;;;;;12.30;8.02;;;;;;;;;;4985957;28;92514;-74
2022/07/19 05:03:14;;;;;;;13.93;8.70;;;;;;;;;;4996860;28;92944;-75
2022/07/19 05:05:40;;;;;;;22.98;9.80;;;;;;;;;;4986951;28;92428;-75
2022/07/19 05:08:07;;;;;;;21.63;8.95;;;;;;;;;;4987885;28;93673;-75
2022/07/19 05:10:33;;;;;;;16.85;10.52;;;;;;;;;;4984705;28;94381;-74
2022/07/19 05:13:00;;;;;;;13.43;9.13;;;;;;;;;;4982807;28;93092;-75
2022/07/19 05:15:26;;;;;;;16.65;8.75;;;;;;;;;;4984396;28;93741;-74
2022/07/19 05:17:52;;;;;;;13.43;8.65;;;;;;;;;;4989434;28;93957;-75
2022/07/19 05:20:19;;;;;;;12.13;8.88;;;;;;;;;;4988710;28;95539;-75
2022/07/19 05:22:45;;;;;;;10.90;9.68;;;;;;;;;;5000558;28;96374;-74
2022/07/19 05:25:14;;;;;;;13.48;8.90;;;;;;;;;;5003387;28;93927;-74
2022/07/19 05:27:40;;;;;;;9.35;8.35;;;;;;;;;;5007722;28;93128;-74
2022/07/19 05:30:07;;;;;;;12.75;8.50;;;;;;;;;;5013712;28;93463;-75
2022/07/19 05:32:33;;;;;;;14.07;9.40;;;;;;;;;;5005227;28;92551;-76
2022/07/19 05:35:00;;;;;;;9.40;8.50;;;;;;;;;;5005754;28;94475;-75
2022/07/19 05:37:26;;;;;;;21.63;8.50;;;;;;;;;;5014304;28;93507;-75
2022/07/19 05:39:52;;;;;;;10.25;7.35;;;;;;;;;;5011394;28;92489;-76
2022/07/19 05:42:19;;;;;;;9.05;7.95;;;;;;;;;;5007304;28;93866;-75
2022/07/19 05:44:46;;;;;;;8.38;7.57;;;;;;;;;;5010974;28;96521;-74
2022/07/19 05:47:13;;;;;;;15.40;7.90;;;;;;;;;;5004814;28;92836;-74
2022/07/19 05:49:39;;;;;;;14.95;7.75;;;;;;;;;;5008173;28;94220;-75
2022/07/19 05:52:05;;;;;;;11.48;8.05;;;;;;;;;;5005429;28;92580;-75
2022/07/19 05:54:32;;;;;;;16.77;7.90;;;;;;;;;;5007812;28;93793;-75
2022/07/19 05:56:58;;;;;;;15.85;6.93;;;;;;;;;;5010152;28;93287;-75
2022/07/19 05:59:24;;;;;;;11.00;7.50;;;;;;;;;;5013955;28;92835;-74
2022/07/19 06:01:51;;;;;;;19.48;7.43;;;;;;;;;;5014824;28;93882;-75
2022/07/19 06:04:17;;;;;;;17.50;7.30;;;;;;;;;;5004688;28;93663;-74
2022/07/19 06:06:44;;;;;;;10.23;7.00;;;;;;;;;;4986267;28;92642;-75
2022/07/19 06:09:12;;;;;;;12.77;7.22;;;;;;;;;;4992708;28;96327;-75
2022/07/19 06:11:40;;;;;;;15.82;7.07;;;;;;;;;;4982427;28;92763;-75
2022/07/19 06:14:12;;;;;;;13.63;7.82;;;;;;;;;;4982433;28;93219;-75
2022/07/19 06:16:40;;;;;;;16.95;6.70;;;;;;;;;;4984266;27;93750;-75
2022/07/19 06:19:06;;;;;;;9.30;7.28;;;;;;;;;;4980066;28;93242;-75
2022/07/19 06:21:33;;;;;;;10.75;6.57;;;;;;;;;;4981748;28;93721;-75
2022/07/19 06:24:00;;;;;;;13.52;7.00;;;;;;;;;;4978677;28;94290;-76
2022/07/19 06:26:26;;;;;;;17.80;6.72;;;;;;;;;;4984519;28;93903;-72
2022/07/19 06:28:53;;;;;;;14.77;7.22;;;;;;;;;;4981420;28;94056;-72
2022/07/19 06:31:20;;;;;;;10.65;7.28;;;;;;;;;;4982168;28;93202;-72
2022/07/19 06:33:48;;;;;;;14.00;7.35;;;;;;;;;;4983567;28;96495;-72
2022/07/19 06:36:15;;;;;;;18.83;8.00;;;;;;;;;;4980706;28;94309;-72
2022/07/19 06:38:42;;;;;;;14.13;7.10;;;;;;;;;;4986854;28;94760;-72
2022/07/19 06:41:09;;;;;;;27.88;6.88;;;;;;;;;;4985879;28;93248;-72
2022/07/19 06:43:36;;;;;;;16.10;6.78;;;;;;;;;;4988553;28;94338;-72
2022/07/19 06:46:02;;;;;;;16.80;6.72;;;;;;;;;;4985917;28;93043;-71
2022/07/19 06:48:28;;;;;;;16.23;6.28;;;;;;;;;;4981665;28;93892;-72
2022/07/19 06:50:55;;;;;;;17.10;7.53;;;;;;;;;;4993655;28;92713;-71
2022/07/19 06:53:21;;;;;;;12.43;6.63;;;;;;;;;;4997307;28;92523;-72
2022/07/19 06:55:48;;;;;;;20.17;6.80;;;;;;;;;;4996020;28;93437;-71
2022/07/19 06:58:14;;;;;;;11.98;6.45;;;;;;;;;;4994336;28;94999;-73
2022/07/19 07:00:41;;;;;;;11.38;6.15;;;;;;;;;;4995746;28;95321;-72
2022/07/19 07:03:07;;;;;;;14.00;6.45;;;;;;;;;;4997958;28;94201;-72
2022/07/19 07:05:34;;;;;;;15.98;6.57;;;;;;;;;;4998680;28;93172;-72
2022/07/19 07:08:00;;;;;;;13.60;6.03;;;;;;;;;;4992372;28;93273;-72
2022/07/19 07:10:27;;;;;;;15.95;7.00;;;;;;;;;;4994976;28;93749;-72
2022/07/19 07:12:53;;;;;;;25.10;6.68;;;;;;;;;;4998076;28;92960;-72
2022/07/19 07:15:20;;;;;;;19.75;6.88;;;;;;;;;;4996115;28;91780;-72
2022/07/19 07:17:46;;;;;;;14.02;6.18;;;;;;;;;;4997699;28;92511;-72
2022/07/19 07:20:12;;;;;;;20.38;7.13;;;;;;;;;;4996078;28;93099;-73
2022/07/19 07:22:39;;;;;;;16.70;6.80;;;;;;;;;;4993801;28;95851;-72
2022/07/19 07:25:06;;;;;;;25.40;6.90;;;;;;;;;;4994384;28;93271;-72
2022/07/19 07:27:34;;;;;;;15.23;6.40;;;;;;;;;;4994736;28;93713;-72
2022/07/19 07:30:00;;;;;;;17.23;6.85;;;;;;;;;;4994933;28;93737;-74
2022/07/19 07:32:27;;;;;;;17.27;6.68;;;;;;;;;;4997251;27;92484;-73
2022/07/19 07:34:54;;;;;;;26.08;6.90;;;;;;;;;;4990270;28;94839;-72
2022/07/19 07:37:20;;;;;;;13.02;6.60;;;;;;;;;;4990714;28;93203;-77
2022/07/19 07:39:46;;;;;;;16.60;6.78;;;;;;;;;;4994223;28;94006;-72
2022/07/19 07:42:13;;;;;;;23.92;6.80;;;;;;;;;;4987512;28;93378;-72
2022/07/19 07:44:40;;;;;;;19.08;7.15;;;;;;;;;;4984355;28;93373;-73
2022/07/19 07:47:08;;;;;;;23.92;7.50;;;;;;;;;;4994207;28;94822;-72
2022/07/19 07:49:38;;;;;;;21.33;7.85;;;;;;;;;;4994993;28;93042;-72
2022/07/19 07:52:04;;;;;;;16.30;6.90;;;;;;;;;;4994903;28;94180;-72
2022/07/19 07:54:31;;;;;;;17.23;6.82;;;;;;;;;;4994263;28;93206;-72
2022/07/19 07:56:57;;;;;;;18.40;7.45;;;;;;;;;;4996482;28;93754;-72
2022/07/19 07:59:24;;;;;;;23.42;7.68;;;;;;;;;;4993817;28;94027;-72
2022/07/19 08:01:50;;;;;;;15.93;7.20;;;;;;;;;;4990957;28;93774;-72
2022/07/19 08:04:24;;;;;;;23.60;7.68;;;;;;;;;;4993826;28;91756;-72
2022/07/19 08:06:51;;;;;;;26.17;7.72;;;;;;;;;;4989920;28;92387;-74
2022/07/19 08:09:18;;;;;;;14.80;7.30;;;;;;;;;;4992341;28;93870;-72
2022/07/19 08:11:44;;;;;;;19.30;8.23;;;;;;;;;;4991713;28;96232;-73
2022/07/19 08:14:11;;;;;;;13.85;7.90;;;;;;;;;;4997004;28;95636;-73
2022/07/19 08:16:37;;;;;;;14.35;7.30;;;;;;;;;;4995356;28;94139;-73
2022/07/19 08:19:04;;;;;;;18.70;8.43;;;;;;;;;;4998834;28;92582;-73
2022/07/19 08:21:30;;;;;;;18.05;8.18;;;;;;;;;;4996087;28;93379;-73
2022/07/19 08:23:56;;;;;;;24.05;9.18;;;;;;;;;;4994293;28;92493;-73
2022/07/19 08:26:23;;;;;;;15.60;8.32;;;;;;;;;;4995354;27;92656;-73
2022/07/19 08:28:49;;;;;;;22.48;8.65;;;;;;;;;;4994951;28;92659;-73
2022/07/19 08:31:16;;;;;;;20.73;7.28;;;;;;;;;;4995560;28;93048;-73
2022/07/19 08:33:43;;;;;;;26.08;7.45;;;;;;;;;;4990674;28;93867;-73
2022/07/19 08:36:09;;;;;;;21.48;7.38;;;;;;;;;;4992222;28;96556;-72
2022/07/19 08:38:37;;;;;;;12.63;7.30;;;;;;;;;;4993143;28;93055;-74
2022/07/19 08:41:04;;;;;;;12.10;6.35;;;;;;;;;;4996903;28;93582;-73
2022/07/19 08:43:31;;;;;;;16.02;6.68;;;;;;;;;;4993292;28;92843;-72
2022/07/19 08:46:01;;;;;;;12.43;5.80;;;;;;;;;;4993111;28;93024;-72
2022/07/19 08:48:31;;;;;;;19.25;5.93;;;;;;;;;;4994808;28;93198;-72
2022/07/19 08:51:04;;;;;;;16.60;6.50;;;;;;;;;;4991737;28;92972;-72
2022/07/19 08:53:32;;;;;;;9.25;5.38;;;;;;;;;;4992250;28;94070;-72
2022/07/19 08:55:59;;;;;;;16.25;5.50;;;;;;;;;;4991373;28;93480;-72
2022/07/19 08:58:27;;;;;;;8.02;4.50;;;;;;;;;;4990236;28;92909;-72
2022/07/19 09:00:54;;;;;;;15.50;4.43;;;;;;;;;;4993395;28;95047;-72
2022/07/19 09:03:20;;;;;;;11.13;4.47;;;;;;;;;;4991094;28;92854;-72
2022/07/19 09:05:47;;;;;;;11.27;4.97;;;;;;;;;;4992225;28;94098;-72
2022/07/19 09:08:14;;;;;;;9.32;3.80;;;;;;;;;;4992263;28;95303;-72
2022/07/19 09:13:33;;;;;;;8.88;3.22;;;;;;;;;;4991073;28;94120;-74
2022/07/19 09:15:59;;;;;;;13.98;4.22;;;;;;;;;;4992208;28;94101;-73
2022/07/19 09:18:27;;;;;;;7.45;3.65;;;;;;;;;;4986020;27;91880;-73
2022/07/19 09:21:04;;;;;;;12.80;3.13;;;;;;;;;;4985818;28;92981;-73
2022/07/19 09:23:30;;;;;;;7.78;3.47;;;;;;;;;;4994543;28;94257;-73
2022/07/19 09:25:58;;;;;;;19.38;3.00;;;;;;;;;;4990370;28;94943;-73
2022/07/19 09:28:26;;;;;;;7.53;3.17;;;;;;;;;;4991521;28;94116;-73
2022/07/19 09:30:54;;;;;;;12.55;2.90;;;;;;;;;;4993265;28;92608;-73
2022/07/19 09:33:28;;;;;;;11.05;3.22;;;;;;;;;;4992187;28;94016;-73
2022/07/19 09:35:59;;;;;;;13.52;3.00;;;;;;;;;;4991155;28;94241;-73
2022/07/19 09:38:30;;;;;;;2.75;2.17;;;;;;;;;;4992381;28;92631;-73
2022/07/19 09:41:10;;;;;;;10.57;2.60;;;;;;;;;;4991019;28;94157;-73
2022/07/19 09:43:48;;;;;;;8.27;2.45;;;;;;;;;;4989062;28;92736;-73
2022/07/19 09:46:34;;;;;;;8.15;2.42;;;;;;;;;;4994059;28;93019;-72
2022/07/19 09:49:05;;;;;;;9.73;3.13;;;;;;;;;;4990343;28;93375;-72
2022/07/19 09:51:39;;;;;;;17.60;3.08;;;;;;;;;;4991935;28;94897;-72
2022/07/19 09:54:06;;;;;;;3.88;2.53;;;;;;;;;;4993287;28;95506;-72
2022/07/19 09:56:33;;;;;;;8.45;2.70;;;;;;;;;;4987750;28;94172;-72
2022/07/19 09:59:01;;;;;;;9.45;3.33;;;;;;;;;;4989660;28;92688;-72
2022/07/19 10:01:28;;;;;;;6.15;2.53;;;;;;;;;;4989833;28;92965;-72
2022/07/19 10:03:58;;;;;;;14.15;2.85;;;;;;;;;;4984309;28;93254;-74
2022/07/19 10:06:25;;;;;;;6.13;2.85;;;;;;;;;;4985284;28;92646;-73
2022/07/19 10:08:52;;;;;;;4.50;2.58;;;;;;;;;;4979675;28;93129;-73
2022/07/19 10:11:19;;;;;;;6.32;2.28;;;;;;;;;;4976263;28;93711;-72
2022/07/19 10:13:48;;;;;;;16.75;3.00;;;;;;;;;;4978201;28;93359;-73
2022/07/19 10:16:17;;;;;;;5.90;3.00;;;;;;;;;;4981451;28;95707;-72
2022/07/19 10:18:49;;;;;;;8.25;2.30;;;;;;;;;;4983832;28;92560;-73
2022/07/19 10:21:16;;;;;;;5.35;2.50;;;;;;;;;;4980314;28;92788;-73
2022/07/19 10:23:50;;;;;;;7.15;2.60;;;;;;;;;;4981512;28;93714;-73
2022/07/19 10:26:34;;;;;;;5.05;2.38;;;;;;;;;;4978575;28;95180;-73
2022/07/19 10:29:08;;;;;;;18.08;3.08;;;;;;;;;;4974089;28;94961;-73
2022/07/19 10:31:38;;;;;;;8.55;2.40;;;;;;;;;;4979736;28;94253;-73
2022/07/19 10:34:08;;;;;;;22.08;4.13;;;;;;;;;;4977503;28;93902;-73
2022/07/19 10:36:39;;;;;;;14.30;3.13;;;;;;;;;;4973908;28;92558;-73
2022/07/19 10:39:17;;;;;;;6.95;2.40;;;;;;;;;;4978863;28;94082;-73
2022/07/19 10:42:03;;;;;;;6.70;2.65;;;;;;;;;;4974403;28;96021;-72
2022/07/19 10:44:30;;;;;;;7.55;2.08;;;;;;;;;;4977939;28;93622;-72
2022/07/19 10:46:56;;;;;;;7.90;2.88;;;;;;;;;;4977411;27;92575;-72
2022/07/19 10:49:44;;;;;;;7.78;2.72;;;;;;;;;;4984273;28;92546;-72
2022/07/19 10:52:45;;;;;;;7.00;2.58;;;;;;;;;;4984745;28;93496;-73
2022/07/19 10:55:24;;;;;;;9.68;2.65;;;;;;;;;;4956717;28;94152;-72
2022/07/19 10:57:50;;;;;;;10.15;2.83;;;;;;;;;;4976225;28;94275;-72
2022/07/19 11:00:17;;;;;;;5.47;2.60;;;;;;;;;;4978471;28;91838;-73
2022/07/19 11:02:44;;;;;;;17.42;3.20;;;;;;;;;;4983579;28;92725;-73
2022/07/19 11:05:21;;;;;;;8.45;2.75;;;;;;;;;;4985650;28;93974;-73
2022/07/19 11:07:49;;;;;;;14.48;2.78;;;;;;;;;;4978742;28;96626;-75
2022/07/19 11:10:22;;;;;;;5.75;2.40;;;;;;;;;;4982126;28;95602;-73
2022/07/19 11:12:49;;;;;;;10.10;2.50;;;;;;;;;;4984876;27;93294;-72
2022/07/19 11:15:16;;;;;;;7.13;2.40;;;;;;;;;;4988233;28;92610;-72
2022/07/19 11:17:51;;;;;;;7.57;2.70;;;;;;;;;;4985063;28;93397;-74
2022/07/19 11:20:19;;;;;;;10.73;2.88;;;;;;;;;;4990177;28;92480;-72
2022/07/19 11:22:46;;;;;;;15.13;3.30;;;;;;;;;;4983010;28;94409;-72
2022/07/19 11:25:13;;;;;;;6.35;2.40;;;;;;;;;;4989727;28;92636;-72
2022/07/19 11:27:41;;;;;;;6.28;2.90;;;;;;;;;;4983800;28;94397;-72
2022/07/19 11:30:08;;;;;;;8.10;2.75;;;;;;;;;;4988756;28;93795;-72
2022/07/19 11:32:35;;;;;;;10.80;2.88;;;;;;;;;;4987775;28;95942;-72
2022/07/19 11:35:04;;;;;;;12.20;3.53;;;;;;;;;;4987470;28;92954;-72
2022/07/19 11:37:32;;;;;;;7.38;2.67;;;;;;;;;;4993091;28;94172;-72
2022/07/19 11:39:59;;;;;;;6.28;3.00;;;;;;;;;;4984230;28;93820;-72
2022/07/19 11:42:44;;;;;;;5.88;2.45;;;;;;;;;;4991469;28;93846;-72
2022/07/19 11:45:31;;;;;;;7.70;2.95;;;;;;;;;;4991302;28;94254;-73
2022/07/19 11:47:57;;;;;;;9.25;2.80;;;;;;;;;;4986345;28;93982;-73
2022/07/19 11:50:25;;;;;;;9.48;3.00;;;;;;;;;;4990603;28;93165;-72
2022/07/19 11:52:51;;;;;;;10.10;3.03;;;;;;;;;;4985482;28;93579;-73
2022/07/19 11:55:19;;;;;;;10.70;2.70;;;;;;;;;;4988759;27;93229;-72
2022/07/19 11:57:46;;;;;;;7.00;2.65;;;;;;;;;;4986980;28;96583;-72
2022/07/19 12:00:13;;;;;;;10.07;2.88;;;;;;;;;;4989685;28;93377;-73
2022/07/19 12:02:52;;;;;;;10.88;2.60;;;;;;;;;;4990345;28;94141;-73
2022/07/19 12:05:18;;;;;;;6.30;2.22;;;;;;;;;;4984333;28;93956;-74
2022/07/19 12:07:46;;;;;;;6.00;2.80;;;;;;;;;;4989681;28;92447;-73
2022/07/19 12:10:32;;;;;;;6.28;2.78;;;;;;;;;;4989043;28;94944;-73
2022/07/19 12:13:00;;;;;;;3.58;2.13;;;;;;;;;;5002063;28;94261;-73
2022/07/19 12:15:26;;;;;;;7.72;2.58;;;;;;;;;;5011979;28;92765;-74
2022/07/19 12:17:56;;;;;;;5.35;2.38;;;;;;;;;;4995562;28;92480;-73
2022/07/19 12:20:23;;;;;;;7.70;2.85;;;;;;;;;;5003579;28;94635;-72
2022/07/19 12:23:16;;;;;;;6.40;2.35;;;;;;;;;;4988514;28;94873;-72
2022/07/19 12:25:43;;;;;;;6.05;2.25;;;;;;;;;;4994343;28;93330;-72
2022/07/19 12:28:09;;;;;;;9.02;3.03;;;;;;;;;;4985528;28;92550;-72
2022/07/19 12:30:37;;;;;;;6.57;2.70;;;;;;;;;;4993478;28;92797;-72
2022/07/19 12:33:11;;;;;;;8.52;2.47;;;;;;;;;;4995277;28;94009;-73
2022/07/19 12:35:42;;;;;;;5.30;2.40;;;;;;;;;;4983581;28;92511;-73
2022/07/19 12:38:11;;;;;;;8.50;1.92;;;;;;;;;;4984743;28;94918;-71
2022/07/19 12:40:38;;;;;;;6.85;2.28;;;;;;;;;;4987228;28;92896;-71
2022/07/19 12:43:06;;;;;;;5.10;2.13;;;;;;;;;;4986345;28;92555;-72
2022/07/19 12:45:32;;;;;;;6.55;1.95;;;;;;;;;;4986428;28;93720;-72
2022/07/19 12:47:59;;;;;;;4.78;1.85;;;;;;;;;;4981246;28;95420;-72
2022/07/19 12:50:30;;;;;;;6.93;2.22;;;;;;;;;;4981707;28;96658;-72
2022/07/19 12:52:57;;;;;;;;;;;;;;;;;;4980289;28;93735;-72
2022/07/19 12:55:24;;;;;;;8.38;2.42;;;;;;;;;;4986915;28;92600;-72
2022/07/19 12:57:51;;;;;;;9.93;2.25;;;;;;;;;;4982726;28;93744;-72
2022/07/19 13:00:19;;;;;;;4.28;2.03;;;;;;;;;;4980250;28;92620;-72
2022/07/19 13:02:46;;;;;;;7.85;2.00;;;;;;;;;;4980936;28;93332;-73
2022/07/19 13:05:13;;;;;;;5.30;1.77;;;;;;;;;;4982848;28;92596;-72
2022/07/19 13:07:39;;;;;;;4.10;2.15;;;;;;;;;;4985021;28;93192;-72
2022/07/19 13:10:06;;;;;;;12.32;1.88;;;;;;;;;;4982624;28;94305;-71
2022/07/19 13:12:33;;;;;;;2.35;1.70;;;;;;;;;;4977757;28;96072;-73
2022/07/19 13:15:00;;;;;;;3.65;2.10;;;;;;;;;;4979107;28;94140;-72
2022/07/19 13:17:26;;;;;;;4.70;1.77;;;;;;;;;;4988384;28;94184;-72
2022/07/19 13:19:53;;;;;;;3.90;2.00;;;;;;;;;;4981458;28;94249;-72
2022/07/19 13:22:19;;;;;;;8.82;1.95;;;;;;;;;;4981565;28;94674;-72
2022/07/19 13:24:46;;;;;;;4.65;1.88;;;;;;;;;;4980992;28;93979;-72
2022/07/19 13:27:32;;;;;;;4.70;1.83;;;;;;;;;;4988002;28;94412;-72
2022/07/19 13:29:59;;;;;;;8.15;2.08;;;;;;;;;;4980928;28;92935;-72
2022/07/19 13:32:25;;;;;;;5.32;1.77;;;;;;;;;;4984886;28;93372;-72
2022/07/19 13:34:52;;;;;;;3.58;1.67;;;;;;;;;;4982985;28;93897;-72
2022/07/19 13:37:18;;;;;;;4.60;1.75;;;;;;;;;;4981417;28;95452;-72
2022/07/19 13:39:45;;;;;;;1.75;1.65;;;;;;;;;;4988423;28;93511;-73
2022/07/19 13:42:11;;;;;;;6.53;1.88;;;;;;;;;;4995226;28;92666;-73
2022/07/19 13:44:37;;;;;;;3.40;1.90;;;;;;;;;;4985855;28;94111;-75
2022/07/19 13:47:04;;;;;;;5.63;1.60;;;;;;;;;;5003271;28;94208;-73
2022/07/19 13:49:30;;;;;;;3.83;1.60;;;;;;;;;;4987716;28;93430;-72
2022/07/19 13:51:56;;;;;;;3.40;1.77;;;;;;;;;;4985825;28;94176;-72
2022/07/19 13:54:23;;;;;;;1.98;1.80;;;;;;;;;;4981920;28;92375;-73
2022/07/19 13:56:49;;;;;;;12.38;2.05;;;;;;;;;;4988229;28;93518;-72
2022/07/19 13:59:16;;;;;;;8.02;2.20;;;;;;;;;;4986785;27;93935;-72
2022/07/19 14:01:42;;;;;;;6.65;1.85;;;;;;;;;;4986245;28;95074;-72
2022/07/19 14:04:12;;;;;;;18.40;2.55;;;;;;;;;;4998763;28;95307;-72
2022/07/19 14:06:48;;;;;;;7.80;2.25;;;;;;;;;;4984392;28;94266;-72
2022/07/19 14:09:14;;;;;;;11.23;2.15;;;;;;;;;;4984054;28;93069;-72
2022/07/19 14:11:41;;;;;;;10.65;2.00;;;;;;;;;;4987894;28;93828;-73
2022/07/19 14:14:09;;;;;;;6.32;2.00;;;;;;;;;;4988081;28;92685;-72
2022/07/19 14:16:35;;;;;;;14.85;2.50;;;;;;;;;;4982223;28;94145;-72
2022/07/19 14:19:02;;;;;;;11.85;2.10;;;;;;;;;;4987960;28;93717;-72
2022/07/19 14:21:33;;;;;;;3.45;1.70;;;;;;;;;;4987654;28;94903;-72
2022/07/19 14:24:00;;;;;;;6.45;2.60;;;;;;;;;;4995229;28;93322;-72
2022/07/19 14:26:26;;;;;;;6.07;1.90;;;;;;;;;;4979271;28;96509;-72
2022/07/19 14:28:53;;;;;;;10.02;2.63;;;;;;;;;;4989200;28;93267;-72
2022/07/19 14:31:19;;;;;;;10.25;2.50;;;;;;;;;;4988394;28;93279;-72
2022/07/19 14:33:46;;;;;;;4.30;2.10;;;;;;;;;;4987518;28;93034;-74
2022/07/19 14:36:12;;;;;;;5.05;1.88;;;;;;;;;;4992850;28;93911;-73
2022/07/19 14:38:38;;;;;;;8.00;1.90;;;;;;;;;;4979547;28;93750;-73
2022/07/19 14:41:05;;;;;;;4.68;1.85;;;;;;;;;;4981734;28;92984;-72
2022/07/19 14:43:33;;;;;;;4.88;2.00;;;;;;;;;;4982464;28;93304;-73